sensor_id;sensor_type;location;lat;lon;timestamp;temperature;humidity
23721;DHT22;42950;52.134;5.578;2023-04-01T00:00:20;10.40;99.90
23721;DHT22;42950;52.134;5.578;2023-04-01T00:02:46;10.40;99.90
23721;DHT22;42950;52.134;5.578;2023-04-01T00:05:13;10.40;99.90
23721;DHT22;42950;52.134;5.578;2023-04-01T00:07:39;10.40;99.90
23721;DHT22;42950;52.134;5.578;2023-04-01T00:10:09;10.40;99.90
23721;DHT22;42950;52.134;5.578;2023-04-01T00:12:35;10.40;99.90
23721;DHT22;42950;52.134;5.578;2023-04-01T00:15:02;10.40;99.90
23721;DHT22;42950;52.134;5.578;2023-04-01T00:17:28;10.40;99.90
23721;DHT22;42950;52.134;5.578;2023-04-01T00:19:57;10.40;99.90
23721;DHT22;42950;52.134;5.578;2023-04-01T00:22:24;10.40;99.90
23721;DHT22;42950;52.134;5.578;2023-04-01T00:24:50;10.40;99.90
23721;DHT22;42950;52.134;5.578;2023-04-01T00:27:16;10.40;99.90
23721;DHT22;42950;52.134;5.578;2023-04-01T00:29:43;10.40;99.90
23721;DHT22;42950;52.134;5.578;2023-04-01T00:32:09;10.40;99.90
23721;DHT22;42950;52.134;5.578;2023-04-01T00:34:34;10.40;99.90
23721;DHT22;42950;52.134;5.578;2023-04-01T00:37:00;10.40;99.90
23721;DHT22;42950;52.134;5.578;2023-04-01T00:39:29;10.50;99.90
23721;DHT22;42950;52.134;5.578;2023-04-01T00:41:54;10.40;99.90
23721;DHT22;42950;52.134;5.578;2023-04-01T00:44:31;10.40;99.90
23721;DHT22;42950;52.134;5.578;2023-04-01T00:46:58;10.40;99.90
23721;DHT22;42950;52.134;5.578;2023-04-01T00:49:31;10.40;99.90
23721;DHT22;42950;52.134;5.578;2023-04-01T00:51:59;10.40;99.90
23721;DHT22;42950;52.134;5.578;2023-04-01T00:54:28;10.40;99.90
23721;DHT22;42950;52.134;5.578;2023-04-01T00:56:59;10.40;99.90
23721;DHT22;42950;52.134;5.578;2023-04-01T00:59:34;10.40;99.90
23721;DHT22;42950;52.134;5.578;2023-04-01T01:02:01;10.40;99.90
23721;DHT22;42950;52.134;5.578;2023-04-01T01:04:32;10.40;99.90
23721;DHT22;42950;52.134;5.578;2023-04-01T01:10:18;10.40;99.90
23721;DHT22;42950;52.134;5.578;2023-04-01T01:13:13;10.40;99.90
23721;DHT22;42950;52.134;5.578;2023-04-01T01:27:21;10.40;99.90
23721;DHT22;42950;52.134;5.578;2023-04-01T01:30:14;10.30;99.90
23721;DHT22;42950;52.134;5.578;2023-04-01T01:35:26;10.30;99.90
23721;DHT22;42950;52.134;5.578;2023-04-01T01:38:00;10.20;99.90
23721;DHT22;42950;52.134;5.578;2023-04-01T01:40:30;10.20;99.90
23721;DHT22;42950;52.134;5.578;2023-04-01T01:43:00;10.20;99.90
23721;DHT22;42950;52.134;5.578;2023-04-01T01:45:27;10.20;99.90
23721;DHT22;42950;52.134;5.578;2023-04-01T01:47:55;10.20;99.90
23721;DHT22;42950;52.134;5.578;2023-04-01T01:50:21;10.20;99.90
23721;DHT22;42950;52.134;5.578;2023-04-01T01:52:48;10.20;99.90
23721;DHT22;42950;52.134;5.578;2023-04-01T01:55:29;10.20;99.90
23721;DHT22;42950;52.134;5.578;2023-04-01T01:57:59;10.10;99.90
23721;DHT22;42950;52.134;5.578;2023-04-01T02:00:27;10.10;99.90
23721;DHT22;42950;52.134;5.578;2023-04-01T02:02:54;10.10;99.90
23721;DHT22;42950;52.134;5.578;2023-04-01T02:05:23;10.10;99.90
23721;DHT22;42950;52.134;5.578;2023-04-01T02:08:05;10.10;99.90
23721;DHT22;42950;52.134;5.578;2023-04-01T02:10:36;10.00;99.90
23721;DHT22;42950;52.134;5.578;2023-04-01T02:13:07;10.00;99.90
23721;DHT22;42950;52.134;5.578;2023-04-01T02:15:41;10.00;99.90
23721;DHT22;42950;52.134;5.578;2023-04-01T02:18:08;10.00;99.90
23721;DHT22;42950;52.134;5.578;2023-04-01T02:20:36;10.00;99.90
23721;DHT22;42950;52.134;5.578;2023-04-01T02:23:04;10.00;99.90
23721;DHT22;42950;52.134;5.578;2023-04-01T02:25:35;10.00;99.90
23721;DHT22;42950;52.134;5.578;2023-04-01T02:28:04;10.00;99.90
23721;DHT22;42950;52.134;5.578;2023-04-01T02:30:35;10.00;99.90
23721;DHT22;42950;52.134;5.578;2023-04-01T02:33:03;10.00;99.90
23721;DHT22;42950;52.134;5.578;2023-04-01T02:35:29;10.00;99.90
23721;DHT22;42950;52.134;5.578;2023-04-01T02:37:55;10.00;99.90
23721;DHT22;42950;52.134;5.578;2023-04-01T02:40:23;9.90;99.90
23721;DHT22;42950;52.134;5.578;2023-04-01T02:42:49;9.90;99.90
23721;DHT22;42950;52.134;5.578;2023-04-01T02:45:15;9.90;99.90
23721;DHT22;42950;52.134;5.578;2023-04-01T02:47:40;9.90;99.90
23721;DHT22;42950;52.134;5.578;2023-04-01T02:50:08;9.90;99.90
23721;DHT22;42950;52.134;5.578;2023-04-01T02:52:33;9.90;99.90
23721;DHT22;42950;52.134;5.578;2023-04-01T02:54:59;9.90;99.90
23721;DHT22;42950;52.134;5.578;2023-04-01T02:57:25;9.90;99.90
23721;DHT22;42950;52.134;5.578;2023-04-01T02:59:51;9.90;99.90
23721;DHT22;42950;52.134;5.578;2023-04-01T03:02:17;9.90;99.90
23721;DHT22;42950;52.134;5.578;2023-04-01T03:04:43;9.90;99.90
23721;DHT22;42950;52.134;5.578;2023-04-01T03:07:10;9.90;99.90
23721;DHT22;42950;52.134;5.578;2023-04-01T03:09:36;9.80;99.90
23721;DHT22;42950;52.134;5.578;2023-04-01T03:12:08;9.80;99.90
23721;DHT22;42950;52.134;5.578;2023-04-01T03:14:34;9.80;99.90
23721;DHT22;42950;52.134;5.578;2023-04-01T03:16:59;9.80;99.90
23721;DHT22;42950;52.134;5.578;2023-04-01T03:19:26;9.80;99.90
23721;DHT22;42950;52.134;5.578;2023-04-01T03:21:52;9.70;99.90
23721;DHT22;42950;52.134;5.578;2023-04-01T03:24:18;9.80;99.90
23721;DHT22;42950;52.134;5.578;2023-04-01T03:26:43;9.80;99.90
23721;DHT22;42950;52.134;5.578;2023-04-01T03:29:09;9.70;99.90
23721;DHT22;42950;52.134;5.578;2023-04-01T03:31:35;9.80;99.90
23721;DHT22;42950;52.134;5.578;2023-04-01T03:34:01;9.80;99.90
23721;DHT22;42950;52.134;5.578;2023-04-01T03:36:27;9.70;99.90
23721;DHT22;42950;52.134;5.578;2023-04-01T03:38:52;9.70;99.90
23721;DHT22;42950;52.134;5.578;2023-04-01T03:41:18;9.70;99.90
23721;DHT22;42950;52.134;5.578;2023-04-01T03:43:44;9.70;99.90
23721;DHT22;42950;52.134;5.578;2023-04-01T03:46:10;9.70;99.90
23721;DHT22;42950;52.134;5.578;2023-04-01T03:48:36;9.70;99.90
23721;DHT22;42950;52.134;5.578;2023-04-01T03:51:05;9.70;99.90
23721;DHT22;42950;52.134;5.578;2023-04-01T03:53:32;9.80;99.90
23721;DHT22;42950;52.134;5.578;2023-04-01T03:55:58;9.80;99.90
23721;DHT22;42950;52.134;5.578;2023-04-01T03:58:24;9.80;99.90
23721;DHT22;42950;52.134;5.578;2023-04-01T04:00:50;9.90;99.90
23721;DHT22;42950;52.134;5.578;2023-04-01T04:03:16;9.90;99.90
23721;DHT22;42950;52.134;5.578;2023-04-01T04:05:48;9.90;99.90
23721;DHT22;42950;52.134;5.578;2023-04-01T04:08:15;9.90;99.90
23721;DHT22;42950;52.134;5.578;2023-04-01T04:10:41;9.90;99.90
23721;DHT22;42950;52.134;5.578;2023-04-01T04:13:08;10.00;99.90
23721;DHT22;42950;52.134;5.578;2023-04-01T04:15:34;9.90;99.90
23721;DHT22;42950;52.134;5.578;2023-04-01T04:18:00;10.00;99.90
23721;DHT22;42950;52.134;5.578;2023-04-01T04:20:27;10.00;99.90
23721;DHT22;42950;52.134;5.578;2023-04-01T04:22:54;10.00;99.90
23721;DHT22;42950;52.134;5.578;2023-04-01T04:25:20;10.00;99.90
23721;DHT22;42950;52.134;5.578;2023-04-01T04:27:45;9.90;99.90
23721;DHT22;42950;52.134;5.578;2023-04-01T04:30:11;9.90;99.90
23721;DHT22;42950;52.134;5.578;2023-04-01T04:32:37;9.80;99.90
23721;DHT22;42950;52.134;5.578;2023-04-01T04:35:03;9.90;99.90
23721;DHT22;42950;52.134;5.578;2023-04-01T04:37:29;9.90;99.90
23721;DHT22;42950;52.134;5.578;2023-04-01T04:39:55;9.90;99.90
23721;DHT22;42950;52.134;5.578;2023-04-01T04:42:23;9.90;99.90
23721;DHT22;42950;52.134;5.578;2023-04-01T04:44:48;9.90;99.90
23721;DHT22;42950;52.134;5.578;2023-04-01T04:47:15;9.90;99.90
23721;DHT22;42950;52.134;5.578;2023-04-01T04:49:41;9.90;99.90
23721;DHT22;42950;52.134;5.578;2023-04-01T04:52:06;9.80;99.90
23721;DHT22;42950;52.134;5.578;2023-04-01T04:54:32;9.90;99.90
23721;DHT22;42950;52.134;5.578;2023-04-01T04:56:57;9.90;99.90
23721;DHT22;42950;52.134;5.578;2023-04-01T04:59:23;9.90;99.90
23721;DHT22;42950;52.134;5.578;2023-04-01T05:01:48;9.80;99.90
23721;DHT22;42950;52.134;5.578;2023-04-01T05:04:14;9.80;99.90
23721;DHT22;42950;52.134;5.578;2023-04-01T05:06:39;9.80;99.90
23721;DHT22;42950;52.134;5.578;2023-04-01T05:09:05;9.90;99.90
23721;DHT22;42950;52.134;5.578;2023-04-01T05:11:30;10.00;99.90
23721;DHT22;42950;52.134;5.578;2023-04-01T05:13:56;9.90;99.90
23721;DHT22;42950;52.134;5.578;2023-04-01T05:16:22;9.90;99.90
23721;DHT22;42950;52.134;5.578;2023-04-01T05:18:47;9.90;99.90
23721;DHT22;42950;52.134;5.578;2023-04-01T05:21:14;9.90;99.90
23721;DHT22;42950;52.134;5.578;2023-04-01T05:23:40;9.90;99.90
23721;DHT22;42950;52.134;5.578;2023-04-01T05:26:09;9.90;99.90
23721;DHT22;42950;52.134;5.578;2023-04-01T05:28:34;9.90;99.90
23721;DHT22;42950;52.134;5.578;2023-04-01T05:31:01;9.90;99.90
23721;DHT22;42950;52.134;5.578;2023-04-01T05:33:27;9.90;99.90
23721;DHT22;42950;52.134;5.578;2023-04-01T05:35:53;9.90;99.90
23721;DHT22;42950;52.134;5.578;2023-04-01T05:38:19;10.00;99.90
23721;DHT22;42950;52.134;5.578;2023-04-01T05:40:45;10.00;99.90
23721;DHT22;42950;52.134;5.578;2023-04-01T05:43:11;10.00;99.90
23721;DHT22;42950;52.134;5.578;2023-04-01T05:45:36;10.00;99.90
23721;DHT22;42950;52.134;5.578;2023-04-01T05:48:04;10.00;99.90
23721;DHT22;42950;52.134;5.578;2023-04-01T05:50:30;10.00;99.90
23721;DHT22;42950;52.134;5.578;2023-04-01T05:52:56;10.00;99.90
23721;DHT22;42950;52.134;5.578;2023-04-01T05:55:21;10.00;99.90
23721;DHT22;42950;52.134;5.578;2023-04-01T05:57:47;10.10;99.90
23721;DHT22;42950;52.134;5.578;2023-04-01T06:00:15;10.10;99.90
23721;DHT22;42950;52.134;5.578;2023-04-01T06:02:41;10.10;99.90
23721;DHT22;42950;52.134;5.578;2023-04-01T06:07:39;10.20;99.90
23721;DHT22;42950;52.134;5.578;2023-04-01T06:10:16;10.20;99.90
23721;DHT22;42950;52.134;5.578;2023-04-01T06:12:48;10.10;99.90
23721;DHT22;42950;52.134;5.578;2023-04-01T06:15:29;10.10;99.90
23721;DHT22;42950;52.134;5.578;2023-04-01T06:29:54;10.30;99.90
23721;DHT22;42950;52.134;5.578;2023-04-01T06:35:26;10.20;99.90
23721;DHT22;42950;52.134;5.578;2023-04-01T06:38:28;10.20;99.90
23721;DHT22;42950;52.134;5.578;2023-04-01T06:49:08;10.30;99.90
23721;DHT22;42950;52.134;5.578;2023-04-01T06:54:21;10.20;99.90
23721;DHT22;42950;52.134;5.578;2023-04-01T06:56:54;10.30;99.90
23721;DHT22;42950;52.134;5.578;2023-04-01T06:59:26;10.30;99.90
23721;DHT22;42950;52.134;5.578;2023-04-01T07:01:57;10.30;99.90
23721;DHT22;42950;52.134;5.578;2023-04-01T07:07:14;10.40;99.90
23721;DHT22;42950;52.134;5.578;2023-04-01T07:09:45;10.40;99.90
23721;DHT22;42950;52.134;5.578;2023-04-01T07:12:36;10.40;99.90
23721;DHT22;42950;52.134;5.578;2023-04-01T07:15:12;10.40;99.90
23721;DHT22;42950;52.134;5.578;2023-04-01T07:17:39;10.40;99.90
23721;DHT22;42950;52.134;5.578;2023-04-01T07:20:26;10.40;99.90
23721;DHT22;42950;52.134;5.578;2023-04-01T07:22:57;10.40;99.90
23721;DHT22;42950;52.134;5.578;2023-04-01T07:25:31;10.40;99.90
23721;DHT22;42950;52.134;5.578;2023-04-01T07:28:05;10.40;99.90
23721;DHT22;42950;52.134;5.578;2023-04-01T07:31:29;10.40;99.90
23721;DHT22;42950;52.134;5.578;2023-04-01T07:33:56;10.40;99.90
23721;DHT22;42950;52.134;5.578;2023-04-01T07:36:39;10.30;99.90
23721;DHT22;42950;52.134;5.578;2023-04-01T07:47:11;10.50;99.90
23721;DHT22;42950;52.134;5.578;2023-04-01T07:55:22;10.50;99.90
23721;DHT22;42950;52.134;5.578;2023-04-01T08:00:24;10.60;99.90
23721;DHT22;42950;52.134;5.578;2023-04-01T08:03:28;10.60;99.90
23721;DHT22;42950;52.134;5.578;2023-04-01T08:05:56;10.70;99.90
23721;DHT22;42950;52.134;5.578;2023-04-01T08:14:20;10.70;99.90
23721;DHT22;42950;52.134;5.578;2023-04-01T08:17:19;10.60;99.90
23721;DHT22;42950;52.134;5.578;2023-04-01T08:20:10;10.70;99.90
23721;DHT22;42950;52.134;5.578;2023-04-01T08:22:51;10.70;99.90
23721;DHT22;42950;52.134;5.578;2023-04-01T08:25:27;10.70;99.90
23721;DHT22;42950;52.134;5.578;2023-04-01T08:28:00;10.80;99.90
23721;DHT22;42950;52.134;5.578;2023-04-01T08:38:26;10.90;99.90
23721;DHT22;42950;52.134;5.578;2023-04-01T08:54:24;11.00;99.90
23721;DHT22;42950;52.134;5.578;2023-04-01T08:57:13;10.90;99.90
23721;DHT22;42950;52.134;5.578;2023-04-01T09:00:08;10.90;99.90
23721;DHT22;42950;52.134;5.578;2023-04-01T09:05:44;11.00;99.90
23721;DHT22;42950;52.134;5.578;2023-04-01T09:19:15;11.30;99.90
23721;DHT22;42950;52.134;5.578;2023-04-01T09:27:36;11.40;99.90
23721;DHT22;42950;52.134;5.578;2023-04-01T09:35:56;11.50;99.90
23721;DHT22;42950;52.134;5.578;2023-04-01T09:38:56;11.60;99.90
23721;DHT22;42950;52.134;5.578;2023-04-01T09:41:29;11.80;99.90
23721;DHT22;42950;52.134;5.578;2023-04-01T10:06:54;12.10;99.90
23721;DHT22;42950;52.134;5.578;2023-04-01T10:15:57;12.20;99.90
23721;DHT22;42950;52.134;5.578;2023-04-01T10:18:32;12.10;99.90
23721;DHT22;42950;52.134;5.578;2023-04-01T10:21:29;12.10;99.90
23721;DHT22;42950;52.134;5.578;2023-04-01T10:24:11;12.20;99.90
23721;DHT22;42950;52.134;5.578;2023-04-01T10:38:58;12.10;99.90
23721;DHT22;42950;52.134;5.578;2023-04-01T10:41:39;11.90;99.90
23721;DHT22;42950;52.134;5.578;2023-04-01T10:44:20;12.00;99.90
23721;DHT22;42950;52.134;5.578;2023-04-01T10:53:13;12.10;99.90
23721;DHT22;42950;52.134;5.578;2023-04-01T11:28:16;11.80;99.90
23721;DHT22;42950;52.134;5.578;2023-04-01T11:42:48;11.60;99.90
23721;DHT22;42950;52.134;5.578;2023-04-01T11:50:59;11.60;99.90
23721;DHT22;42950;52.134;5.578;2023-04-01T11:53:47;11.50;99.90
23721;DHT22;42950;52.134;5.578;2023-04-01T12:05:19;11.70;99.90
23721;DHT22;42950;52.134;5.578;2023-04-01T12:10:21;11.70;99.90
23721;DHT22;42950;52.134;5.578;2023-04-01T12:13:01;11.70;99.90
23721;DHT22;42950;52.134;5.578;2023-04-01T12:18:12;11.70;99.90
23721;DHT22;42950;52.134;5.578;2023-04-01T12:20:57;11.80;99.90
23721;DHT22;42950;52.134;5.578;2023-04-01T12:31:56;12.30;99.90
23721;DHT22;42950;52.134;5.578;2023-04-01T12:45:35;12.10;99.90
23721;DHT22;42950;52.134;5.578;2023-04-01T13:02:29;11.90;99.90
23721;DHT22;42950;52.134;5.578;2023-04-01T13:16:29;11.90;99.90
23721;DHT22;42950;52.134;5.578;2023-04-01T13:19:36;11.90;99.90
23721;DHT22;42950;52.134;5.578;2023-04-01T13:22:18;11.90;99.90
23721;DHT22;42950;52.134;5.578;2023-04-01T13:24:50;11.90;99.90
23721;DHT22;42950;52.134;5.578;2023-04-01T13:30:33;11.80;99.90
23721;DHT22;42950;52.134;5.578;2023-04-01T13:41:38;11.80;99.90
23721;DHT22;42950;52.134;5.578;2023-04-01T13:47:07;11.80;99.90
23721;DHT22;42950;52.134;5.578;2023-04-01T13:55:39;12.00;99.90
23721;DHT22;42950;52.134;5.578;2023-04-01T14:03:38;12.00;99.90
23721;DHT22;42950;52.134;5.578;2023-04-01T14:08:59;11.90;99.90
23721;DHT22;42950;52.134;5.578;2023-04-01T14:28:09;11.50;99.90
23721;DHT22;42950;52.134;5.578;2023-04-01T14:31:08;11.50;99.90
23721;DHT22;42950;52.134;5.578;2023-04-01T14:36:29;11.50;99.90
23721;DHT22;42950;52.134;5.578;2023-04-01T14:44:45;11.20;99.90
23721;DHT22;42950;52.134;5.578;2023-04-01T14:47:27;11.30;99.90
23721;DHT22;42950;52.134;5.578;2023-04-01T14:50:03;11.20;99.90
23721;DHT22;42950;52.134;5.578;2023-04-01T14:52:39;11.20;99.90
23721;DHT22;42950;52.134;5.578;2023-04-01T14:58:10;11.40;99.90
23721;DHT22;42950;52.134;5.578;2023-04-01T15:03:33;11.50;99.90
23721;DHT22;42950;52.134;5.578;2023-04-01T15:06:26;11.50;99.90
23721;DHT22;42950;52.134;5.578;2023-04-01T15:12:17;11.50;99.90
23721;DHT22;42950;52.134;5.578;2023-04-01T15:15:10;11.50;99.90
23721;DHT22;42950;52.134;5.578;2023-04-01T15:17:33;11.50;99.90
23721;DHT22;42950;52.134;5.578;2023-04-01T15:22:59;11.60;99.90
23721;DHT22;42950;52.134;5.578;2023-04-01T15:25:45;11.50;99.90
23721;DHT22;42950;52.134;5.578;2023-04-01T15:28:18;11.40;99.90
23721;DHT22;42950;52.134;5.578;2023-04-01T15:38:53;11.30;99.90
23721;DHT22;42950;52.134;5.578;2023-04-01T15:47:37;11.40;99.90
23721;DHT22;42950;52.134;5.578;2023-04-01T15:55:39;11.30;99.90
23721;DHT22;42950;52.134;5.578;2023-04-01T16:06:11;11.10;99.90
23721;DHT22;42950;52.134;5.578;2023-04-01T16:11:23;11.00;99.90
23721;DHT22;42950;52.134;5.578;2023-04-01T16:13:59;11.10;99.90
23721;DHT22;42950;52.134;5.578;2023-04-01T16:24:20;10.80;99.90
23721;DHT22;42950;52.134;5.578;2023-04-01T16:30:03;10.80;99.90
23721;DHT22;42950;52.134;5.578;2023-04-01T16:32:45;10.80;99.90
23721;DHT22;42950;52.134;5.578;2023-04-01T16:35:40;10.70;99.90
23721;DHT22;42950;52.134;5.578;2023-04-01T16:41:12;10.60;99.90
23721;DHT22;42950;52.134;5.578;2023-04-01T16:43:48;10.60;99.90
23721;DHT22;42950;52.134;5.578;2023-04-01T16:56:43;10.30;99.90
23721;DHT22;42950;52.134;5.578;2023-04-01T16:59:15;10.30;99.90
23721;DHT22;42950;52.134;5.578;2023-04-01T17:07:40;10.10;99.90
23721;DHT22;42950;52.134;5.578;2023-04-01T17:15:35;10.10;99.90
23721;DHT22;42950;52.134;5.578;2023-04-01T17:18:33;10.10;99.90
23721;DHT22;42950;52.134;5.578;2023-04-01T17:21:39;10.10;99.90
23721;DHT22;42950;52.134;5.578;2023-04-01T17:26:55;10.10;99.90
23721;DHT22;42950;52.134;5.578;2023-04-01T17:32:08;10.10;99.90
23721;DHT22;42950;52.134;5.578;2023-04-01T17:41:34;10.00;99.90
23721;DHT22;42950;52.134;5.578;2023-04-01T17:44:16;9.90;99.90
23721;DHT22;42950;52.134;5.578;2023-04-01T17:46:59;9.90;99.90
23721;DHT22;42950;52.134;5.578;2023-04-01T17:49:39;9.80;99.90
23721;DHT22;42950;52.134;5.578;2023-04-01T17:52:28;9.80;99.90
23721;DHT22;42950;52.134;5.578;2023-04-01T17:55:06;9.70;99.90
23721;DHT22;42950;52.134;5.578;2023-04-01T18:00:26;9.80;99.90
23721;DHT22;42950;52.134;5.578;2023-04-01T18:03:24;9.80;99.90
23721;DHT22;42950;52.134;5.578;2023-04-01T18:09:09;9.70;99.90
23721;DHT22;42950;52.134;5.578;2023-04-01T18:12:13;9.70;99.90
23721;DHT22;42950;52.134;5.578;2023-04-01T18:21:04;9.60;99.90
23721;DHT22;42950;52.134;5.578;2023-04-01T18:23:41;9.60;99.90
23721;DHT22;42950;52.134;5.578;2023-04-01T18:26:13;9.70;99.90
23721;DHT22;42950;52.134;5.578;2023-04-01T18:31:23;9.70;99.90
23721;DHT22;42950;52.134;5.578;2023-04-01T18:38:57;9.60;99.90
23721;DHT22;42950;52.134;5.578;2023-04-01T18:50:20;9.50;99.90
23721;DHT22;42950;52.134;5.578;2023-04-01T18:52:49;9.50;99.90
23721;DHT22;42950;52.134;5.578;2023-04-01T18:55:35;9.50;99.90
23721;DHT22;42950;52.134;5.578;2023-04-01T18:58:14;9.40;99.90
23721;DHT22;42950;52.134;5.578;2023-04-01T19:01:00;9.50;99.90
23721;DHT22;42950;52.134;5.578;2023-04-01T19:03:31;9.40;99.90
23721;DHT22;42950;52.134;5.578;2023-04-01T19:06:01;9.40;99.90
23721;DHT22;42950;52.134;5.578;2023-04-01T19:08:35;9.40;99.90
23721;DHT22;42950;52.134;5.578;2023-04-01T19:13:48;9.40;99.90
23721;DHT22;42950;52.134;5.578;2023-04-01T19:27:45;9.30;99.90
23721;DHT22;42950;52.134;5.578;2023-04-01T19:30:18;9.30;99.90
23721;DHT22;42950;52.134;5.578;2023-04-01T19:33:28;9.40;99.90
23721;DHT22;42950;52.134;5.578;2023-04-01T19:36:09;9.30;99.90
23721;DHT22;42950;52.134;5.578;2023-04-01T19:38:38;9.20;99.90
23721;DHT22;42950;52.134;5.578;2023-04-01T19:41:59;9.10;99.90
23721;DHT22;42950;52.134;5.578;2023-04-01T19:44:55;9.00;99.90
23721;DHT22;42950;52.134;5.578;2023-04-01T19:47:38;9.00;99.90
23721;DHT22;42950;52.134;5.578;2023-04-01T19:52:54;8.80;99.90
23721;DHT22;42950;52.134;5.578;2023-04-01T19:55:38;8.80;99.90
23721;DHT22;42950;52.134;5.578;2023-04-01T19:58:26;8.80;99.90
23721;DHT22;42950;52.134;5.578;2023-04-01T20:00:58;8.80;99.90
23721;DHT22;42950;52.134;5.578;2023-04-01T20:14:41;8.80;99.90
23721;DHT22;42950;52.134;5.578;2023-04-01T20:17:31;8.80;99.90
23721;DHT22;42950;52.134;5.578;2023-04-01T20:20:15;8.70;99.90
23721;DHT22;42950;52.134;5.578;2023-04-01T20:25:26;8.60;99.90
23721;DHT22;42950;52.134;5.578;2023-04-01T20:28:00;8.60;99.90
23721;DHT22;42950;52.134;5.578;2023-04-01T20:33:18;8.60;99.90
23721;DHT22;42950;52.134;5.578;2023-04-01T20:36:12;8.60;99.90
23721;DHT22;42950;52.134;5.578;2023-04-01T20:44:30;8.40;99.90
23721;DHT22;42950;52.134;5.578;2023-04-01T20:47:22;8.30;99.90
23721;DHT22;42950;52.134;5.578;2023-04-01T20:50:07;8.20;99.90
23721;DHT22;42950;52.134;5.578;2023-04-01T20:52:45;8.20;99.90
23721;DHT22;42950;52.134;5.578;2023-04-01T20:55:26;8.20;99.90
23721;DHT22;42950;52.134;5.578;2023-04-01T20:58:13;8.10;99.90
23721;DHT22;42950;52.134;5.578;2023-04-01T21:00:53;8.10;99.90
23721;DHT22;42950;52.134;5.578;2023-04-01T21:03:34;8.10;99.90
23721;DHT22;42950;52.134;5.578;2023-04-01T21:06:29;8.10;99.90
23721;DHT22;42950;52.134;5.578;2023-04-01T21:34:01;8.00;99.90
23721;DHT22;42950;52.134;5.578;2023-04-01T22:05:02;7.70;99.90
23721;DHT22;42950;52.134;5.578;2023-04-01T22:07:23;7.70;99.90
23721;DHT22;42950;52.134;5.578;2023-04-01T22:10:00;7.70;99.90
23721;DHT22;42950;52.134;5.578;2023-04-01T22:12:50;7.70;99.90
23721;DHT22;42950;52.134;5.578;2023-04-01T22:15:21;7.60;99.90
23721;DHT22;42950;52.134;5.578;2023-04-01T22:17:55;7.60;99.90
23721;DHT22;42950;52.134;5.578;2023-04-01T22:20:54;7.60;99.90
23721;DHT22;42950;52.134;5.578;2023-04-01T22:23:28;7.60;99.90
23721;DHT22;42950;52.134;5.578;2023-04-01T22:26:09;7.60;99.90
23721;DHT22;42950;52.134;5.578;2023-04-01T22:28:52;7.70;99.90
23721;DHT22;42950;52.134;5.578;2023-04-01T22:31:28;7.60;99.90
23721;DHT22;42950;52.134;5.578;2023-04-01T22:34:04;7.60;99.90
23721;DHT22;42950;52.134;5.578;2023-04-01T22:37:07;7.50;99.90
23721;DHT22;42950;52.134;5.578;2023-04-01T22:40:00;7.40;99.90
23721;DHT22;42950;52.134;5.578;2023-04-01T22:45:23;7.50;99.90
23721;DHT22;42950;52.134;5.578;2023-04-01T22:48:12;7.40;99.90
23721;DHT22;42950;52.134;5.578;2023-04-01T22:53:32;7.50;99.90
23721;DHT22;42950;52.134;5.578;2023-04-01T22:56:07;7.50;99.90
23721;DHT22;42950;52.134;5.578;2023-04-01T22:58:41;7.40;99.90
23721;DHT22;42950;52.134;5.578;2023-04-01T23:01:14;7.40;99.90
23721;DHT22;42950;52.134;5.578;2023-04-01T23:03:42;7.40;99.90
23721;DHT22;42950;52.134;5.578;2023-04-01T23:06:23;7.30;99.90
23721;DHT22;42950;52.134;5.578;2023-04-01T23:11:40;7.30;99.90
23721;DHT22;42950;52.134;5.578;2023-04-01T23:22:16;7.30;99.90
23721;DHT22;42950;52.134;5.578;2023-04-01T23:25:03;7.30;99.90
23721;DHT22;42950;52.134;5.578;2023-04-01T23:27:35;7.30;99.90
23721;DHT22;42950;52.134;5.578;2023-04-01T23:30:03;7.20;99.90
23721;DHT22;42950;52.134;5.578;2023-04-01T23:32:29;7.30;99.90
23721;DHT22;42950;52.134;5.578;2023-04-01T23:34:57;7.20;99.90
23721;DHT22;42950;52.134;5.578;2023-04-01T23:37:24;7.30;99.90
23721;DHT22;42950;52.134;5.578;2023-04-01T23:39:53;7.20;99.90
23721;DHT22;42950;52.134;5.578;2023-04-01T23:42:30;7.20;99.90
23721;DHT22;42950;52.134;5.578;2023-04-01T23:45:11;7.20;99.90
23721;DHT22;42950;52.134;5.578;2023-04-01T23:47:39;7.20;99.90
23721;DHT22;42950;52.134;5.578;2023-04-01T23:50:18;7.20;99.90
23721;DHT22;42950;52.134;5.578;2023-04-01T23:52:53;7.20;99.90
23721;DHT22;42950;52.134;5.578;2023-04-01T23:55:31;7.20;99.90
23721;DHT22;42950;52.134;5.578;2023-04-01T23:58:25;7.20;99.90
